Richard L Becker — WCY8957 — position and weather

sailwx.info

Track history (hours):
 
Tides and Currents Weather Stations Pressure Air Temp Water Temp Dewpoint Dewpoint Depression Visibility Wind Speed Wind Dir Waves Ship Positions

Richard L Becker

Owner: VESSEL RECOVERY INC, Pompano Beach, FL. More information available from US FCC via Universal Licensing System and Coast Guard Vessel Documentation Center.

Last reported at 2018-May-22 01:09 UTC. Time now 2018-May-22 21:36 UTC.
Position N 26°04' W 080°00'.

Length 27 m; draft 3 m.

Type: Other ship. MMSI: 367390470.

Date/timePositionNaut miles runAvg speedWind from/ knotsBaromVisibWave heightAir tempDewpointWater temp
2018-May-22 01:09N 26°04' W 080°00'1 7.2
2018-May-22 00:57N 26°05' W 080°02'4 8.5
2018-May-22 00:30N 26°06' W 080°06'1 1.3
2018-May-21 23:59N 26°06' W 080°07'0 0.0
2018-May-21 23:29N 26°06' W 080°07'0 0.0
2018-May-21 22:59N 26°06' W 080°07'0 0.0
2018-May-21 22:29N 26°06' W 080°07'0 0.0
2018-May-21 21:59N 26°06' W 080°07'0 0.0
2018-May-21 21:29N 26°06' W 080°07'0 0.0
2018-May-21 20:59N 26°06' W 080°07'0 0.0
2018-May-21 20:29N 26°06' W 080°07'0 0.0
2018-May-21 19:59N 26°06' W 080°07'0 0.0
2018-May-21 19:29N 26°06' W 080°07'0 0.0
2018-May-21 18:59N 26°06' W 080°07'0 0.0
2018-May-21 18:26N 26°06' W 080°07'0 0.0
2018-May-21 17:59N 26°06' W 080°07'0 0.0
2018-May-21 17:29N 26°06' W 080°07'0 0.0
2018-May-21 16:59N 26°06' W 080°07'0 0.0
2018-May-21 16:29N 26°06' W 080°07'0 0.0
2018-May-21 15:59N 26°06' W 080°07'0 0.0
2018-May-21 15:29N 26°06' W 080°07'0 0.0
2018-May-21 14:59N 26°06' W 080°07'0 0.0
2018-May-21 14:29N 26°06' W 080°07'0 0.0
2018-May-21 13:59N 26°06' W 080°07'0 0.0
2018-May-21 13:29N 26°06' W 080°07'0 0.0
2018-May-21 12:59N 26°06' W 080°07'0 0.0
2018-May-21 12:29N 26°06' W 080°07'0 0.0
2018-May-21 11:59N 26°06' W 080°07'0 0.0
2018-May-21 11:29N 26°06' W 080°07'0 0.2
2018-May-21 11:00N 26°06' W 080°07'0 0.1
2018-May-21 10:29N 26°06' W 080°07'0 0.0
2018-May-21 10:01N 26°06' W 080°07'2 4.4
2018-May-21 09:30N 26°03' W 080°07'0 0.0
2018-May-21 08:58N 26°03' W 080°07'0 0.0
2018-May-21 08:28N 26°03' W 080°07'0 0.0
2018-May-21 07:58N 26°03' W 080°07'0 0.0
2018-May-21 07:28N 26°03' W 080°07'0 0.0
2018-May-21 06:58N 26°03' W 080°07'0 0.0
2018-May-21 06:28N 26°03' W 080°07'0 0.0
2018-May-21 05:58N 26°03' W 080°07'0 0.0
2018-May-21 05:28N 26°03' W 080°07'0 0.0
2018-May-21 04:58N 26°03' W 080°07'0 0.0
2018-May-21 04:28N 26°03' W 080°07'0 0.0
2018-May-21 03:58N 26°03' W 080°07'0 0.0
2018-May-21 03:28N 26°03' W 080°07'0 0.0
2018-May-21 02:58N 26°03' W 080°07'0 0.0
2018-May-21 02:28N 26°03' W 080°07'0 0.0
2018-May-21 01:58N 26°03' W 080°07'0 0.0
2018-May-21 01:31N 26°03' W 080°07'0 0.0
2018-May-21 00:58N 26°03' W 080°07'0 0.0
2018-May-21 00:28N 26°03' W 080°07'0 0.0
2018-May-20 23:58N 26°03' W 080°07'0 0.0
2018-May-20 23:31N 26°03' W 080°07'0 0.0
2018-May-20 22:58N 26°03' W 080°07'0 0.0
2018-May-20 22:28N 26°03' W 080°07'0 0.0
2018-May-20 21:58N 26°03' W 080°07'0 0.0
2018-May-20 21:28N 26°03' W 080°07'0 0.0
2018-May-20 21:00N 26°03' W 080°07'0 0.0
2018-May-20 20:27N 26°03' W 080°07'0 0.0
2018-May-20 19:58N 26°03' W 080°07'0 0.0
2018-May-20 19:28N 26°03' W 080°07'0 0.0
2018-May-20 18:58N 26°03' W 080°07'0 0.0
2018-May-20 18:31N 26°03' W 080°07'0 0.0
2018-May-20 17:58N 26°03' W 080°07'0 0.0
2018-May-20 17:30N 26°03' W 080°07'0 0.0
2018-May-20 16:58N 26°03' W 080°07'0 0.0
2018-May-20 16:28N 26°03' W 080°07'0 0.0
2018-May-20 15:58N 26°03' W 080°07'0 0.0
2018-May-20 15:30N 26°03' W 080°07'0 0.0
2018-May-20 15:00N 26°03' W 080°07'0 0.0
2018-May-20 14:28N 26°03' W 080°07'0 0.0
2018-May-20 14:01N 26°03' W 080°07'0 0.0
2018-May-20 13:27N 26°03' W 080°07'0 0.0
2018-May-20 12:57N 26°03' W 080°07'0 0.0
2018-May-20 12:28N 26°03' W 080°07'0 0.0
2018-May-20 11:58N 26°03' W 080°07'0 0.0
2018-May-20 11:30N 26°03' W 080°07'0 0.0
2018-May-20 11:00N 26°03' W 080°07'0 0.0
2018-May-20 10:31N 26°03' W 080°07'0 0.0
2018-May-20 10:01N 26°03' W 080°07'0 0.0
2018-May-20 09:30N 26°03' W 080°07'0 0.0
2018-May-20 09:01N 26°03' W 080°07'0 0.0
2018-May-20 08:31N 26°03' W 080°07'0 0.0
2018-May-20 08:00N 26°03' W 080°07'0 0.0
2018-May-20 07:30N 26°03' W 080°07'0 0.0
2018-May-20 06:58N 26°03' W 080°07'0 0.0
2018-May-20 06:27N 26°03' W 080°07'0 0.0
2018-May-20 05:58N 26°03' W 080°07'0 0.0
2018-May-20 05:30N 26°03' W 080°07'0 0.0
2018-May-20 05:00N 26°03' W 080°07'0 0.0
2018-May-20 04:30N 26°03' W 080°07'0 0.0
2018-May-20 04:00N 26°03' W 080°07'0 0.0
2018-May-20 03:30N 26°03' W 080°07'0 0.0
2018-May-20 03:00N 26°03' W 080°07'0 0.0
2018-May-20 02:30N 26°03' W 080°07'0 0.0
2018-May-20 02:01N 26°03' W 080°07'0 0.0
2018-May-20 01:31N 26°03' W 080°07'0 0.0
2018-May-20 01:00N 26°03' W 080°07'0 0.0
2018-May-20 00:30N 26°03' W 080°07'0 0.0
2018-May-20 00:00N 26°03' W 080°07'0 0.0
2018-May-19 23:31N 26°03' W 080°07'0 0.0
2018-May-19 23:00N 26°03' W 080°07'0 0.0
2018-May-19 22:31N 26°03' W 080°07'0 0.0
2018-May-19 22:00N 26°03' W 080°07'0 0.0
2018-May-19 21:30N 26°03' W 080°07'0 0.0
2018-May-19 21:00N 26°03' W 080°07'0 0.0
2018-May-19 20:30N 26°03' W 080°07'0 0.0
2018-May-19 20:00N 26°03' W 080°07'0 0.0
2018-May-19 19:27N 26°03' W 080°07'0 0.0
2018-May-19 19:00N 26°03' W 080°07'0 0.0
2018-May-19 18:30N 26°03' W 080°07'0 0.0
2018-May-19 18:00N 26°03' W 080°07'0 0.0
2018-May-19 17:30N 26°03' W 080°07'0 0.0
2018-May-19 17:00N 26°03' W 080°07'0 0.0
2018-May-19 16:30N 26°03' W 080°07'0 0.0
2018-May-19 16:01N 26°03' W 080°07'0 0.0
2018-May-19 15:30N 26°03' W 080°07'0 0.0
2018-May-19 15:00N 26°03' W 080°07'0 0.0
2018-May-19 14:31N 26°03' W 080°07'0 0.0
2018-May-19 14:00N 26°03' W 080°07'0 0.0
2018-May-19 13:30N 26°03' W 080°07'0 0.0
2018-May-19 13:00N 26°03' W 080°07'0 0.0
2018-May-19 12:30N 26°03' W 080°07'0 0.0
2018-May-19 12:00N 26°03' W 080°07'0 0.0
2018-May-19 11:30N 26°03' W 080°07'0 0.0
2018-May-19 11:00N 26°03' W 080°07'0 0.0
2018-May-19 10:30N 26°03' W 080°07'0 0.0
2018-May-19 10:00N 26°03' W 080°07'0 0.0
2018-May-19 09:30N 26°03' W 080°07'0 0.0
2018-May-19 09:00N 26°03' W 080°07'0 0.0
2018-May-19 08:30N 26°03' W 080°07'0 0.0
2018-May-19 08:00N 26°03' W 080°07'0 0.0
2018-May-19 07:30N 26°03' W 080°07'0 0.0
2018-May-19 07:00N 26°03' W 080°07'0 0.0
2018-May-19 06:30N 26°03' W 080°07'0 0.0
2018-May-19 06:00N 26°03' W 080°07'0 0.0
2018-May-19 05:30N 26°03' W 080°07'0 0.0
2018-May-19 05:00N 26°03' W 080°07'0 0.0
2018-May-19 04:30N 26°03' W 080°07'0 0.0
2018-May-19 04:00N 26°03' W 080°07'0 0.0
2018-May-19 03:30N 26°03' W 080°07'0 0.0
2018-May-19 03:00N 26°03' W 080°07'0 0.0
2018-May-19 02:30N 26°03' W 080°07'0 0.0
2018-May-19 02:00N 26°03' W 080°07'0 0.0
2018-May-19 01:30N 26°03' W 080°07'0 0.0
2018-May-19 01:00N 26°03' W 080°07'0 0.0
2018-May-19 00:30N 26°03' W 080°07'0 0.0
2018-May-19 00:00N 26°03' W 080°07'0 0.0
2018-May-18 23:30N 26°03' W 080°07'0 0.0
2018-May-18 23:00N 26°03' W 080°07'0 0.0
2018-May-18 22:30N 26°03' W 080°07'0 0.0
2018-May-18 22:00N 26°03' W 080°07'0 0.0
2018-May-18 21:30N 26°03' W 080°07'0 0.0
2018-May-18 21:00N 26°03' W 080°07'0 0.0
2018-May-18 20:30N 26°03' W 080°07'0 0.0
2018-May-18 20:00N 26°03' W 080°07'0 0.0
2018-May-18 19:30N 26°03' W 080°07'0 0.0
2018-May-18 19:00N 26°03' W 080°07'0 0.0
2018-May-18 18:30N 26°03' W 080°07'0 0.0
2018-May-18 18:00N 26°03' W 080°07'0 0.0
2018-May-18 17:30N 26°03' W 080°07'0 0.0
2018-May-18 17:00N 26°03' W 080°07'0 0.0
2018-May-18 16:30N 26°03' W 080°07'0 0.0
2018-May-18 16:00N 26°03' W 080°07'0 0.0
2018-May-18 15:30N 26°03' W 080°07'0 0.0
2018-May-18 15:00N 26°03' W 080°07'0 0.0
2018-May-18 14:30N 26°03' W 080°07'0 0.0
2018-May-18 14:00N 26°03' W 080°07'0 0.0
2018-May-18 13:30N 26°03' W 080°07'0 0.0
2018-May-18 13:00N 26°03' W 080°07'0 0.0
2018-May-18 12:30N 26°03' W 080°07'0 0.0
2018-May-18 12:00N 26°03' W 080°07'0 0.0
2018-May-18 11:30N 26°03' W 080°07'0 0.0
2018-May-18 11:00N 26°03' W 080°07'0 0.0
2018-May-18 10:30N 26°03' W 080°07'0 0.0
2018-May-18 10:00N 26°03' W 080°07'0 0.0
2018-May-18 09:30N 26°03' W 080°07'0 0.0
2018-May-18 09:00N 26°03' W 080°07'0 0.0
2018-May-18 08:30N 26°03' W 080°07'0 0.0
2018-May-18 08:00N 26°03' W 080°07'0 0.0
2018-May-18 07:30N 26°03' W 080°07'0 0.0
2018-May-18 07:00N 26°03' W 080°07'0 0.0
2018-May-18 06:30N 26°03' W 080°07'0 0.0
2018-May-18 06:00N 26°03' W 080°07'0 0.0
2018-May-18 05:30N 26°03' W 080°07'0 0.0
2018-May-18 05:00N 26°03' W 080°07'0 0.0
2018-May-18 04:30N 26°03' W 080°07'0 0.0
2018-May-18 04:00N 26°03' W 080°07'0 0.0
2018-May-18 03:30N 26°03' W 080°07'0 0.0
2018-May-18 03:00N 26°03' W 080°07'0 0.0
2018-May-18 02:30N 26°03' W 080°07'0 0.0
2018-May-18 02:00N 26°03' W 080°07'0 0.0
2018-May-18 01:30N 26°03' W 080°07'0 0.0
2018-May-18 01:00N 26°03' W 080°07'0 0.0
2018-May-18 00:30N 26°03' W 080°07'0 0.0
2018-May-18 00:00N 26°03' W 080°07'0 0.0
2018-May-17 23:30N 26°03' W 080°07'0 0.0
2018-May-17 23:00N 26°03' W 080°07'0 0.0
2018-May-17 22:30N 26°03' W 080°07'0 0.0
2018-May-17 22:00N 26°03' W 080°07'0 0.0
2018-May-17 21:30N 26°03' W 080°07'0 0.0
2018-May-17 21:00N 26°03' W 080°07'0 0.0
2018-May-17 20:30N 26°03' W 080°07'0 0.0
2018-May-17 20:00N 26°03' W 080°07'0 0.0
2018-May-17 19:30N 26°03' W 080°07'0 0.0
2018-May-17 19:00N 26°03' W 080°07'0 0.0
2018-May-17 18:30N 26°03' W 080°07'0 0.0
2018-May-17 18:00N 26°03' W 080°07'0 0.0
2018-May-17 17:30N 26°03' W 080°07'0 0.0
2018-May-17 17:00N 26°03' W 080°07'0 0.0
2018-May-17 16:30N 26°03' W 080°07'0 0.0
2018-May-17 16:00N 26°03' W 080°07'0 0.0
2018-May-17 15:30N 26°03' W 080°07'0 0.0
2018-May-17 15:00N 26°03' W 080°07'0 0.0
2018-May-17 14:30N 26°03' W 080°07'0 0.0
2018-May-17 14:00N 26°03' W 080°07'0 0.0
2018-May-17 13:30N 26°03' W 080°07'0 0.0
2018-May-17 13:00N 26°03' W 080°07'0 0.0
2018-May-17 12:30N 26°03' W 080°07'0 0.0
2018-May-17 12:00N 26°03' W 080°07'0 0.0
2018-May-17 11:30N 26°03' W 080°07'0 0.0
2018-May-17 11:00N 26°03' W 080°07'0 0.0
2018-May-17 10:30N 26°03' W 080°07'0 0.0
2018-May-17 10:00N 26°03' W 080°07'0 0.0
2018-May-17 09:30N 26°03' W 080°07'0 0.0
2018-May-17 09:00N 26°03' W 080°07'0 0.0
2018-May-17 08:30N 26°03' W 080°07'0 0.0
2018-May-17 08:00N 26°03' W 080°07'0 0.0
2018-May-17 07:30N 26°03' W 080°07'0 0.0
2018-May-17 07:00N 26°03' W 080°07'0 0.0
2018-May-17 06:30N 26°03' W 080°07'0 0.0
2018-May-17 06:00N 26°03' W 080°07'0 0.0
2018-May-17 05:30N 26°03' W 080°07'0 0.0
2018-May-17 05:00N 26°03' W 080°07'0 0.0
2018-May-17 04:30N 26°03' W 080°07'0 0.0
2018-May-17 04:00N 26°03' W 080°07'0 0.0
2018-May-17 03:30N 26°03' W 080°07'0 0.0
2018-May-17 03:00N 26°03' W 080°07'0 0.0
2018-May-17 02:30N 26°03' W 080°07'0 0.0
2018-May-17 02:00N 26°03' W 080°07'0 0.0
2018-May-17 01:30N 26°03' W 080°07'0 0.0
2018-May-17 01:00N 26°03' W 080°07'0 0.0
2018-May-17 00:30N 26°03' W 080°07'0 0.0
2018-May-17 00:00N 26°03' W 080°07'0 0.0
2018-May-16 23:30N 26°03' W 080°07'0 0.0
2018-May-16 23:00N 26°03' W 080°07'0 0.0
2018-May-16 22:30N 26°03' W 080°07'0 0.0
2018-May-16 22:00N 26°03' W 080°07'0 0.0
2018-May-16 21:30N 26°03' W 080°07'0 0.0
2018-May-16 21:00N 26°03' W 080°07'0 0.0
2018-May-16 20:30N 26°03' W 080°07'0 0.0
2018-May-16 20:00N 26°03' W 080°07'0 0.0
2018-May-16 19:30N 26°03' W 080°07'0 0.0
2018-May-16 19:00N 26°03' W 080°07'0 0.0
2018-May-16 18:30N 26°03' W 080°07'0 0.0
2018-May-16 18:00N 26°03' W 080°07'0 0.0
2018-May-16 17:30N 26°03' W 080°07'0 0.0
2018-May-16 17:00N 26°03' W 080°07'0 0.0
2018-May-16 16:30N 26°03' W 080°07'0 0.0
2018-May-16 16:00N 26°03' W 080°07'0 0.0
2018-May-16 15:30N 26°03' W 080°07'0 0.0
2018-May-16 15:00N 26°03' W 080°07'0 0.0
2018-May-16 14:30N 26°03' W 080°07'0 0.0
2018-May-16 14:00N 26°03' W 080°07'0 0.0
2018-May-16 13:30N 26°03' W 080°07'0 0.0
2018-May-16 13:00N 26°03' W 080°07'0 0.0
2018-May-16 12:30N 26°03' W 080°07'0 0.0
2018-May-16 12:00N 26°03' W 080°07'0 0.0
2018-May-16 11:30N 26°03' W 080°07'0 0.0
2018-May-16 11:00N 26°03' W 080°07'0 0.0
2018-May-16 10:30N 26°03' W 080°07'0 0.0
2018-May-16 10:00N 26°03' W 080°07'0 0.0
2018-May-16 09:30N 26°03' W 080°07'0 0.0
2018-May-16 09:00N 26°03' W 080°07'0 0.0
2018-May-16 08:30N 26°03' W 080°07'0 0.0
2018-May-16 08:00N 26°03' W 080°07'0 0.0
2018-May-16 07:30N 26°03' W 080°07'0 0.0
2018-May-16 07:00N 26°03' W 080°07'0 0.0
2018-May-16 06:30N 26°03' W 080°07'0 0.0
2018-May-16 06:00N 26°03' W 080°07'0 0.0
2018-May-16 05:30N 26°03' W 080°07'0 0.0
2018-May-16 05:00N 26°03' W 080°07'0 0.0
2018-May-16 04:30N 26°03' W 080°07'0 0.0
2018-May-16 04:00N 26°03' W 080°07'0 0.0
2018-May-16 03:30N 26°03' W 080°07'0 0.0
2018-May-16 03:00N 26°03' W 080°07'0 0.0
2018-May-16 02:30N 26°03' W 080°07'0 0.0
2018-May-16 02:00N 26°03' W 080°07'0 0.0
2018-May-16 01:30N 26°03' W 080°07'0 0.0
2018-May-16 01:00N 26°03' W 080°07'0 0.0
2018-May-16 00:30N 26°03' W 080°07'0 0.0
2018-May-16 00:00N 26°03' W 080°07'0 0.0
2018-May-15 23:30N 26°03' W 080°07'0 0.0
2018-May-15 23:00N 26°03' W 080°07'0 0.0
2018-May-15 22:30N 26°03' W 080°07'0 0.0
2018-May-15 22:00N 26°03' W 080°07'0 0.0
2018-May-15 21:30N 26°03' W 080°07'0 0.0
2018-May-15 21:00N 26°03' W 080°07'0 0.0
2018-May-15 20:30N 26°03' W 080°07'0 0.0
2018-May-15 20:00N 26°03' W 080°07'0 0.0
2018-May-15 19:30N 26°03' W 080°07'0 0.0
2018-May-15 19:00N 26°03' W 080°07'0 0.0
2018-May-15 18:30N 26°03' W 080°07'0 0.0
2018-May-15 18:00N 26°03' W 080°07'0 0.0
2018-May-15 17:30N 26°03' W 080°07'0 0.0
2018-May-15 16:57N 26°03' W 080°07'0 0.0
2018-May-15 16:30N 26°03' W 080°07'0 0.0
2018-May-15 16:00N 26°03' W 080°07'0 0.0
2018-May-15 15:30N 26°03' W 080°07'0 0.0
2018-May-15 15:00N 26°03' W 080°07'0 0.0
2018-May-15 14:30N 26°03' W 080°07'0 0.0
2018-May-15 14:00N 26°03' W 080°07'0 0.0
2018-May-15 13:30N 26°03' W 080°07'0 0.0
2018-May-15 13:00N 26°03' W 080°07'0 0.0
2018-May-15 12:30N 26°03' W 080°07'0 0.0
2018-May-15 12:00N 26°03' W 080°07'0 0.0
2018-May-15 11:30N 26°03' W 080°07'0 0.0
2018-May-15 11:00N 26°03' W 080°07'0 0.0
2018-May-15 10:30N 26°03' W 080°07'0 0.0
2018-May-15 10:00N 26°03' W 080°07'0 0.0
2018-May-15 09:30N 26°03' W 080°07'0 0.0
2018-May-15 09:00N 26°03' W 080°07'0 0.0
2018-May-15 08:30N 26°03' W 080°07'0 0.0
2018-May-15 08:00N 26°03' W 080°07'0 0.0
2018-May-15 07:30N 26°03' W 080°07'0 0.0
2018-May-15 07:00N 26°03' W 080°07'0 0.0
2018-May-15 06:30N 26°03' W 080°07'0 0.0
2018-May-15 06:00N 26°03' W 080°07'0 0.0
2018-May-15 05:30N 26°03' W 080°07'0 0.0
2018-May-15 05:00N 26°03' W 080°07'0 0.0
2018-May-15 04:30N 26°03' W 080°07'0 0.0
2018-May-15 04:00N 26°03' W 080°07'0 0.0
2018-May-15 03:30N 26°03' W 080°07'0 0.0
2018-May-15 03:00N 26°03' W 080°07'0 0.0
2018-May-15 02:30N 26°03' W 080°07'0 0.0
2018-May-15 02:00N 26°03' W 080°07'0 0.0
2018-May-15 01:30N 26°03' W 080°07'0 0.0
2018-May-15 01:00N 26°03' W 080°07'0 0.0
2018-May-15 00:30N 26°03' W 080°07'1 2.2
2018-May-15 00:00N 26°04' W 080°07'3 5.3
2018-May-14 23:30N 26°07' W 080°05'2 3.4
2018-May-14 23:00N 26°08' W 080°05'2 3.6
2018-May-14 22:30N 26°06' W 080°05'3 6.3
2018-May-14 22:00N 26°04' W 080°07'0 0.8
2018-May-14 21:29N 26°03' W 080°07'0 0.0
2018-May-14 20:59N 26°03' W 080°07'0 0.0
2018-May-14 20:29N 26°03' W 080°07'0 0.0
2018-May-14 19:59N 26°03' W 080°07'0 0.0
2018-May-14 19:29N 26°03' W 080°07'0 0.0
2018-May-14 18:59N 26°03' W 080°07'0 0.0
2018-May-14 18:29N 26°03' W 080°07'0 0.0
2018-May-14 17:59N 26°03' W 080°07'0 0.0
2018-May-14 17:29N 26°03' W 080°07'0 0.0
2018-May-14 16:59N 26°03' W 080°07'0 0.0
2018-May-14 16:29N 26°03' W 080°07'0 0.0
2018-May-14 15:59N 26°03' W 080°07'0 0.0
2018-May-14 15:29N 26°03' W 080°07'0 0.0
2018-May-14 14:59N 26°03' W 080°07'0 0.0
2018-May-14 14:29N 26°03' W 080°07'0 0.0
2018-May-14 13:59N 26°03' W 080°07'0 0.0
2018-May-14 13:29N 26°03' W 080°07'0 0.0
2018-May-14 12:59N 26°03' W 080°07'0 0.0
2018-May-14 12:29N 26°03' W 080°07'0 0.0
2018-May-14 11:59N 26°03' W 080°07'0 0.0
2018-May-14 11:29N 26°03' W 080°07'0 0.0
2018-May-14 10:59N 26°03' W 080°07'0 0.0
2018-May-14 10:29N 26°03' W 080°07'0 0.0
2018-May-14 09:59N 26°03' W 080°07'0 0.0
2018-May-14 09:29N 26°03' W 080°07'0 0.0
2018-May-14 08:59N 26°03' W 080°07'0 0.0
2018-May-14 08:29N 26°03' W 080°07'0 0.0
2018-May-14 07:59N 26°03' W 080°07'0 0.0
2018-May-14 07:29N 26°03' W 080°07'0 0.0
2018-May-14 06:59N 26°03' W 080°07'0 0.0
2018-May-14 06:29N 26°03' W 080°07'0 0.0
2018-May-14 05:59N 26°03' W 080°07'0 0.0
2018-May-14 05:29N 26°03' W 080°07'0 0.0
2018-May-14 04:59N 26°03' W 080°07'0 0.0
2018-May-14 04:29N 26°03' W 080°07'0 0.0
2018-May-14 03:59N 26°03' W 080°07'0 0.0
2018-May-14 03:29N 26°03' W 080°07'0 0.0
2018-May-14 02:59N 26°03' W 080°07'0 0.0
2018-May-14 02:29N 26°03' W 080°07'0 0.0
2018-May-14 01:59N 26°03' W 080°07'0 0.0
2018-May-14 01:29N 26°03' W 080°07'0 0.0
2018-May-14 00:59N 26°03' W 080°07'0 0.0
2018-May-14 00:29N 26°03' W 080°07'0 0.0
2018-May-13 23:59N 26°03' W 080°07'0 0.0
2018-May-13 23:29N 26°03' W 080°07'0 0.0
2018-May-13 22:59N 26°03' W 080°07'0 0.0
2018-May-13 22:29N 26°03' W 080°07'0 0.0
2018-May-13 21:59N 26°03' W 080°07'0 0.0
2018-May-13 21:29N 26°03' W 080°07'0 0.0
2018-May-13 20:59N 26°03' W 080°07'0 0.0
2018-May-13 20:29N 26°03' W 080°07'0 0.0
2018-May-13 19:59N 26°03' W 080°07'0 0.0
2018-May-13 19:29N 26°03' W 080°07'0 0.0
2018-May-13 18:59N 26°03' W 080°07'0 0.0
2018-May-13 18:29N 26°03' W 080°07'0 0.0
2018-May-13 17:59N 26°03' W 080°07'0 0.0
2018-May-13 17:29N 26°03' W 080°07'0 0.0
2018-May-13 16:59N 26°03' W 080°07'0 0.0
2018-May-13 16:29N 26°03' W 080°07'0 0.0
2018-May-13 15:59N 26°03' W 080°07'0 0.0
2018-May-13 15:29N 26°03' W 080°07'0 0.0
2018-May-13 14:59N 26°03' W 080°07'0 0.0
2018-May-13 14:29N 26°03' W 080°07'0 0.0
2018-May-13 13:59N 26°03' W 080°07'0 0.0
2018-May-13 13:29N 26°03' W 080°07'0 0.0
2018-May-13 12:59N 26°03' W 080°07'0 0.0
2018-May-13 12:29N 26°03' W 080°07'0 0.0
2018-May-13 11:59N 26°03' W 080°07'0 0.0
2018-May-13 11:29N 26°03' W 080°07'0 0.0
2018-May-13 10:59N 26°03' W 080°07'0 0.0
2018-May-13 10:29N 26°03' W 080°07'0 0.0
2018-May-13 09:59N 26°03' W 080°07'0 0.0
2018-May-13 09:29N 26°03' W 080°07'0 0.0
2018-May-13 08:59N 26°03' W 080°07'0 0.0
2018-May-13 08:29N 26°03' W 080°07'0 0.0
2018-May-13 07:59N 26°03' W 080°07'0 0.0
2018-May-13 07:29N 26°03' W 080°07'0 0.0
2018-May-13 06:59N 26°03' W 080°07'0 0.0
2018-May-13 06:29N 26°03' W 080°07'0 0.0
2018-May-13 05:59N 26°03' W 080°07'0 0.0
2018-May-13 05:29N 26°03' W 080°07'0 0.0
2018-May-13 04:59N 26°03' W 080°07'0 0.0
2018-May-13 04:29N 26°03' W 080°07'0 0.0
2018-May-13 03:59N 26°03' W 080°07'0 0.0
2018-May-13 03:29N 26°03' W 080°07'0 0.0
2018-May-13 02:59N 26°03' W 080°07'0 0.0
2018-May-13 02:29N 26°03' W 080°07'0 0.0
2018-May-13 01:59N 26°03' W 080°07'0 0.0
2018-May-13 01:29N 26°03' W 080°07'0 0.0
2018-May-13 00:59N 26°03' W 080°07'0 0.0
2018-May-13 00:29N 26°03' W 080°07'0 0.0
2018-May-12 23:59N 26°03' W 080°07'0 0.0
2018-May-12 23:29N 26°03' W 080°07'0 0.0
2018-May-12 22:59N 26°03' W 080°07'0 0.0
2018-May-12 22:29N 26°03' W 080°07'0 0.0
2018-May-12 21:59N 26°03' W 080°07'0 0.0
2018-May-12 21:29N 26°03' W 080°07'0 0.0
2018-May-12 20:59N 26°03' W 080°07'0 0.0
2018-May-12 20:29N 26°03' W 080°07'0 0.0
2018-May-12 19:59N 26°03' W 080°07'0 0.0
2018-May-12 19:29N 26°03' W 080°07'0 0.0
2018-May-12 18:59N 26°03' W 080°07'0 0.0
2018-May-12 18:29N 26°03' W 080°07'0 0.0
2018-May-12 17:59N 26°03' W 080°07'0 0.0
2018-May-12 17:29N 26°03' W 080°07'0 0.0
2018-May-12 16:59N 26°03' W 080°07'0 0.0
2018-May-12 16:29N 26°03' W 080°07'0 0.0
2018-May-12 15:59N 26°03' W 080°07'0 0.0
2018-May-12 15:29N 26°03' W 080°07'0 0.0
2018-May-12 14:59N 26°03' W 080°07'0 0.0
2018-May-12 14:29N 26°03' W 080°07'0 0.0
2018-May-12 13:59N 26°03' W 080°07'0 0.0
2018-May-12 13:29N 26°03' W 080°07'0 0.0
2018-May-12 12:59N 26°03' W 080°07'0 0.0
2018-May-12 12:29N 26°03' W 080°07'0 0.0
2018-May-12 11:59N 26°03' W 080°07'0 0.0
2018-May-12 11:29N 26°03' W 080°07'0 0.0
2018-May-12 10:59N 26°03' W 080°07'0 0.0
2018-May-12 10:29N 26°03' W 080°07'0 0.0
2018-May-12 09:59N 26°03' W 080°07'0 0.0
2018-May-12 09:29N 26°03' W 080°07'0 0.0
2018-May-12 08:59N 26°03' W 080°07'0 0.0
2018-May-12 08:29N 26°03' W 080°07'0 0.0
2018-May-12 07:59N 26°03' W 080°07'0 0.0
2018-May-12 07:29N 26°03' W 080°07'0 0.0
2018-May-12 06:59N 26°03' W 080°07'0 0.0
2018-May-12 06:29N 26°03' W 080°07'0 0.0
2018-May-12 05:59N 26°03' W 080°07'0 0.0
2018-May-12 05:29N 26°03' W 080°07'0 0.0
2018-May-12 04:59N 26°03' W 080°07'0 0.0
2018-May-12 04:29N 26°03' W 080°07'0 0.0
2018-May-12 03:59N 26°03' W 080°07'0 0.0
2018-May-12 03:29N 26°03' W 080°07'0 0.0
2018-May-12 02:59N 26°03' W 080°07'0 0.0
2018-May-12 02:29N 26°03' W 080°07'0 0.0
2018-May-12 01:59N 26°03' W 080°07'0 0.0
2018-May-12 01:29N 26°03' W 080°07'  
Track history (hours):
 
Tides and Currents Weather Stations Pressure Air Temp Water Temp Dewpoint Dewpoint Depression Visibility Wind Speed Wind Dir Waves Ship Positions

Richard L Becker

Owner: VESSEL RECOVERY INC, Pompano Beach, FL. More information available from US FCC via Universal Licensing System and Coast Guard Vessel Documentation Center.

Last reported at 2018-May-22 01:09 UTC. Time now 2018-May-22 21:36 UTC.
Position N 26°04' W 080°00'.

Length 27 m; draft 3 m.

Type: Other ship. MMSI: 367390470.

Date/timePositionNaut miles runAvg speedWind from/ knotsBaromVisibWave heightAir tempDewpointWater temp
2018-May-22 01:09N 26°04' W 080°00'1 7.2
2018-May-22 00:57N 26°05' W 080°02'4 8.5
2018-May-22 00:30N 26°06' W 080°06'1 1.3
2018-May-21 23:59N 26°06' W 080°07'0 0.0
2018-May-21 23:29N 26°06' W 080°07'0 0.0
2018-May-21 22:59N 26°06' W 080°07'0 0.0
2018-May-21 22:29N 26°06' W 080°07'0 0.0
2018-May-21 21:59N 26°06' W 080°07'0 0.0
2018-May-21 21:29N 26°06' W 080°07'0 0.0
2018-May-21 20:59N 26°06' W 080°07'0 0.0
2018-May-21 20:29N 26°06' W 080°07'0 0.0
2018-May-21 19:59N 26°06' W 080°07'0 0.0
2018-May-21 19:29N 26°06' W 080°07'0 0.0
2018-May-21 18:59N 26°06' W 080°07'0 0.0
2018-May-21 18:26N 26°06' W 080°07'0 0.0
2018-May-21 17:59N 26°06' W 080°07'0 0.0
2018-May-21 17:29N 26°06' W 080°07'0 0.0
2018-May-21 16:59N 26°06' W 080°07'0 0.0
2018-May-21 16:29N 26°06' W 080°07'0 0.0
2018-May-21 15:59N 26°06' W 080°07'0 0.0
2018-May-21 15:29N 26°06' W 080°07'0 0.0
2018-May-21 14:59N 26°06' W 080°07'0 0.0
2018-May-21 14:29N 26°06' W 080°07'0 0.0
2018-May-21 13:59N 26°06' W 080°07'0 0.0
2018-May-21 13:29N 26°06' W 080°07'0 0.0
2018-May-21 12:59N 26°06' W 080°07'0 0.0
2018-May-21 12:29N 26°06' W 080°07'0 0.0
2018-May-21 11:59N 26°06' W 080°07'0 0.0
2018-May-21 11:29N 26°06' W 080°07'0 0.2
2018-May-21 11:00N 26°06' W 080°07'0 0.1
2018-May-21 10:29N 26°06' W 080°07'0 0.0
2018-May-21 10:01N 26°06' W 080°07'2 4.4
2018-May-21 09:30N 26°03' W 080°07'0 0.0
2018-May-21 08:58N 26°03' W 080°07'0 0.0
2018-May-21 08:28N 26°03' W 080°07'0 0.0
2018-May-21 07:58N 26°03' W 080°07'0 0.0
2018-May-21 07:28N 26°03' W 080°07'0 0.0
2018-May-21 06:58N 26°03' W 080°07'0 0.0
2018-May-21 06:28N 26°03' W 080°07'0 0.0
2018-May-21 05:58N 26°03' W 080°07'0 0.0
2018-May-21 05:28N 26°03' W 080°07'0 0.0
2018-May-21 04:58N 26°03' W 080°07'0 0.0
2018-May-21 04:28N 26°03' W 080°07'0 0.0
2018-May-21 03:58N 26°03' W 080°07'0 0.0
2018-May-21 03:28N 26°03' W 080°07'0 0.0
2018-May-21 02:58N 26°03' W 080°07'0 0.0
2018-May-21 02:28N 26°03' W 080°07'0 0.0
2018-May-21 01:58N 26°03' W 080°07'0 0.0
2018-May-21 01:31N 26°03' W 080°07'0 0.0
2018-May-21 00:58N 26°03' W 080°07'0 0.0
2018-May-21 00:28N 26°03' W 080°07'0 0.0
2018-May-20 23:58N 26°03' W 080°07'0 0.0
2018-May-20 23:31N 26°03' W 080°07'0 0.0
2018-May-20 22:58N 26°03' W 080°07'0 0.0
2018-May-20 22:28N 26°03' W 080°07'0 0.0
2018-May-20 21:58N 26°03' W 080°07'0 0.0
2018-May-20 21:28N 26°03' W 080°07'0 0.0
2018-May-20 21:00N 26°03' W 080°07'0 0.0
2018-May-20 20:27N 26°03' W 080°07'0 0.0
2018-May-20 19:58N 26°03' W 080°07'0 0.0
2018-May-20 19:28N 26°03' W 080°07'0 0.0
2018-May-20 18:58N 26°03' W 080°07'0 0.0
2018-May-20 18:31N 26°03' W 080°07'0 0.0
2018-May-20 17:58N 26°03' W 080°07'0 0.0
2018-May-20 17:30N 26°03' W 080°07'0 0.0
2018-May-20 16:58N 26°03' W 080°07'0 0.0
2018-May-20 16:28N 26°03' W 080°07'0 0.0
2018-May-20 15:58N 26°03' W 080°07'0 0.0
2018-May-20 15:30N 26°03' W 080°07'0 0.0
2018-May-20 15:00N 26°03' W 080°07'0 0.0
2018-May-20 14:28N 26°03' W 080°07'0 0.0
2018-May-20 14:01N 26°03' W 080°07'0 0.0
2018-May-20 13:27N 26°03' W 080°07'0 0.0
2018-May-20 12:57N 26°03' W 080°07'0 0.0
2018-May-20 12:28N 26°03' W 080°07'0 0.0
2018-May-20 11:58N 26°03' W 080°07'0 0.0
2018-May-20 11:30N 26°03' W 080°07'0 0.0
2018-May-20 11:00N 26°03' W 080°07'0 0.0
2018-May-20 10:31N 26°03' W 080°07'0 0.0
2018-May-20 10:01N 26°03' W 080°07'0 0.0
2018-May-20 09:30N 26°03' W 080°07'0 0.0
2018-May-20 09:01N 26°03' W 080°07'0 0.0
2018-May-20 08:31N 26°03' W 080°07'0 0.0
2018-May-20 08:00N 26°03' W 080°07'0 0.0
2018-May-20 07:30N 26°03' W 080°07'0 0.0
2018-May-20 06:58N 26°03' W 080°07'0 0.0
2018-May-20 06:27N 26°03' W 080°07'0 0.0
2018-May-20 05:58N 26°03' W 080°07'0 0.0
2018-May-20 05:30N 26°03' W 080°07'0 0.0
2018-May-20 05:00N 26°03' W 080°07'0 0.0
2018-May-20 04:30N 26°03' W 080°07'0 0.0
2018-May-20 04:00N 26°03' W 080°07'0 0.0
2018-May-20 03:30N 26°03' W 080°07'0 0.0
2018-May-20 03:00N 26°03' W 080°07'0 0.0
2018-May-20 02:30N 26°03' W 080°07'0 0.0
2018-May-20 02:01N 26°03' W 080°07'0 0.0
2018-May-20 01:31N 26°03' W 080°07'0 0.0
2018-May-20 01:00N 26°03' W 080°07'0 0.0
2018-May-20 00:30N 26°03' W 080°07'0 0.0
2018-May-20 00:00N 26°03' W 080°07'0 0.0
2018-May-19 23:31N 26°03' W 080°07'0 0.0
2018-May-19 23:00N 26°03' W 080°07'0 0.0
2018-May-19 22:31N 26°03' W 080°07'0 0.0
2018-May-19 22:00N 26°03' W 080°07'0 0.0
2018-May-19 21:30N 26°03' W 080°07'0 0.0
2018-May-19 21:00N 26°03' W 080°07'0 0.0
2018-May-19 20:30N 26°03' W 080°07'0 0.0
2018-May-19 20:00N 26°03' W 080°07'0 0.0
2018-May-19 19:27N 26°03' W 080°07'0 0.0
2018-May-19 19:00N 26°03' W 080°07'0 0.0
2018-May-19 18:30N 26°03' W 080°07'0 0.0
2018-May-19 18:00N 26°03' W 080°07'0 0.0
2018-May-19 17:30N 26°03' W 080°07'0 0.0
2018-May-19 17:00N 26°03' W 080°07'0 0.0
2018-May-19 16:30N 26°03' W 080°07'0 0.0
2018-May-19 16:01N 26°03' W 080°07'0 0.0
2018-May-19 15:30N 26°03' W 080°07'0 0.0
2018-May-19 15:00N 26°03' W 080°07'0 0.0
2018-May-19 14:31N 26°03' W 080°07'0 0.0
2018-May-19 14:00N 26°03' W 080°07'0 0.0
2018-May-19 13:30N 26°03' W 080°07'0 0.0
2018-May-19 13:00N 26°03' W 080°07'0 0.0
2018-May-19 12:30N 26°03' W 080°07'0 0.0
2018-May-19 12:00N 26°03' W 080°07'0 0.0
2018-May-19 11:30N 26°03' W 080°07'0 0.0
2018-May-19 11:00N 26°03' W 080°07'0 0.0
2018-May-19 10:30N 26°03' W 080°07'0 0.0
2018-May-19 10:00N 26°03' W 080°07'0 0.0
2018-May-19 09:30N 26°03' W 080°07'0 0.0
2018-May-19 09:00N 26°03' W 080°07'0 0.0
2018-May-19 08:30N 26°03' W 080°07'0 0.0
2018-May-19 08:00N 26°03' W 080°07'0 0.0
2018-May-19 07:30N 26°03' W 080°07'0 0.0
2018-May-19 07:00N 26°03' W 080°07'0 0.0
2018-May-19 06:30N 26°03' W 080°07'0 0.0
2018-May-19 06:00N 26°03' W 080°07'0 0.0
2018-May-19 05:30N 26°03' W 080°07'0 0.0
2018-May-19 05:00N 26°03' W 080°07'0 0.0
2018-May-19 04:30N 26°03' W 080°07'0 0.0
2018-May-19 04:00N 26°03' W 080°07'0 0.0
2018-May-19 03:30N 26°03' W 080°07'0 0.0
2018-May-19 03:00N 26°03' W 080°07'0 0.0
2018-May-19 02:30N 26°03' W 080°07'0 0.0
2018-May-19 02:00N 26°03' W 080°07'0 0.0
2018-May-19 01:30N 26°03' W 080°07'0 0.0
2018-May-19 01:00N 26°03' W 080°07'0 0.0
2018-May-19 00:30N 26°03' W 080°07'0 0.0
2018-May-19 00:00N 26°03' W 080°07'0 0.0
2018-May-18 23:30N 26°03' W 080°07'0 0.0
2018-May-18 23:00N 26°03' W 080°07'0 0.0
2018-May-18 22:30N 26°03' W 080°07'0 0.0
2018-May-18 22:00N 26°03' W 080°07'0 0.0
2018-May-18 21:30N 26°03' W 080°07'0 0.0
2018-May-18 21:00N 26°03' W 080°07'0 0.0
2018-May-18 20:30N 26°03' W 080°07'0 0.0
2018-May-18 20:00N 26°03' W 080°07'0 0.0
2018-May-18 19:30N 26°03' W 080°07'0 0.0
2018-May-18 19:00N 26°03' W 080°07'0 0.0
2018-May-18 18:30N 26°03' W 080°07'0 0.0
2018-May-18 18:00N 26°03' W 080°07'0 0.0
2018-May-18 17:30N 26°03' W 080°07'0 0.0
2018-May-18 17:00N 26°03' W 080°07'0 0.0
2018-May-18 16:30N 26°03' W 080°07'0 0.0
2018-May-18 16:00N 26°03' W 080°07'0 0.0
2018-May-18 15:30N 26°03' W 080°07'0 0.0
2018-May-18 15:00N 26°03' W 080°07'0 0.0
2018-May-18 14:30N 26°03' W 080°07'0 0.0
2018-May-18 14:00N 26°03' W 080°07'0 0.0
2018-May-18 13:30N 26°03' W 080°07'0 0.0
2018-May-18 13:00N 26°03' W 080°07'0 0.0
2018-May-18 12:30N 26°03' W 080°07'0 0.0
2018-May-18 12:00N 26°03' W 080°07'0 0.0
2018-May-18 11:30N 26°03' W 080°07'0 0.0
2018-May-18 11:00N 26°03' W 080°07'0 0.0
2018-May-18 10:30N 26°03' W 080°07'0 0.0
2018-May-18 10:00N 26°03' W 080°07'0 0.0
2018-May-18 09:30N 26°03' W 080°07'0 0.0
2018-May-18 09:00N 26°03' W 080°07'0 0.0
2018-May-18 08:30N 26°03' W 080°07'0 0.0
2018-May-18 08:00N 26°03' W 080°07'0 0.0
2018-May-18 07:30N 26°03' W 080°07'0 0.0
2018-May-18 07:00N 26°03' W 080°07'0 0.0
2018-May-18 06:30N 26°03' W 080°07'0 0.0
2018-May-18 06:00N 26°03' W 080°07'0 0.0
2018-May-18 05:30N 26°03' W 080°07'0 0.0
2018-May-18 05:00N 26°03' W 080°07'0 0.0
2018-May-18 04:30N 26°03' W 080°07'0 0.0
2018-May-18 04:00N 26°03' W 080°07'0 0.0
2018-May-18 03:30N 26°03' W 080°07'0 0.0
2018-May-18 03:00N 26°03' W 080°07'0 0.0
2018-May-18 02:30N 26°03' W 080°07'0 0.0
2018-May-18 02:00N 26°03' W 080°07'0 0.0
2018-May-18 01:30N 26°03' W 080°07'0 0.0
2018-May-18 01:00N 26°03' W 080°07'0 0.0
2018-May-18 00:30N 26°03' W 080°07'0 0.0
2018-May-18 00:00N 26°03' W 080°07'0 0.0
2018-May-17 23:30N 26°03' W 080°07'0 0.0
2018-May-17 23:00N 26°03' W 080°07'0 0.0
2018-May-17 22:30N 26°03' W 080°07'0 0.0
2018-May-17 22:00N 26°03' W 080°07'0 0.0
2018-May-17 21:30N 26°03' W 080°07'0 0.0
2018-May-17 21:00N 26°03' W 080°07'0 0.0
2018-May-17 20:30N 26°03' W 080°07'0 0.0
2018-May-17 20:00N 26°03' W 080°07'0 0.0
2018-May-17 19:30N 26°03' W 080°07'0 0.0
2018-May-17 19:00N 26°03' W 080°07'0 0.0
2018-May-17 18:30N 26°03' W 080°07'0 0.0
2018-May-17 18:00N 26°03' W 080°07'0 0.0
2018-May-17 17:30N 26°03' W 080°07'0 0.0
2018-May-17 17:00N 26°03' W 080°07'0 0.0
2018-May-17 16:30N 26°03' W 080°07'0 0.0
2018-May-17 16:00N 26°03' W 080°07'0 0.0
2018-May-17 15:30N 26°03' W 080°07'0 0.0
2018-May-17 15:00N 26°03' W 080°07'0 0.0
2018-May-17 14:30N 26°03' W 080°07'0 0.0
2018-May-17 14:00N 26°03' W 080°07'0 0.0
2018-May-17 13:30N 26°03' W 080°07'0 0.0
2018-May-17 13:00N 26°03' W 080°07'0 0.0
2018-May-17 12:30N 26°03' W 080°07'0 0.0
2018-May-17 12:00N 26°03' W 080°07'0 0.0
2018-May-17 11:30N 26°03' W 080°07'0 0.0
2018-May-17 11:00N 26°03' W 080°07'0 0.0
2018-May-17 10:30N 26°03' W 080°07'0 0.0
2018-May-17 10:00N 26°03' W 080°07'0 0.0
2018-May-17 09:30N 26°03' W 080°07'0 0.0
2018-May-17 09:00N 26°03' W 080°07'0 0.0
2018-May-17 08:30N 26°03' W 080°07'0 0.0
2018-May-17 08:00N 26°03' W 080°07'0 0.0
2018-May-17 07:30N 26°03' W 080°07'0 0.0
2018-May-17 07:00N 26°03' W 080°07'0 0.0
2018-May-17 06:30N 26°03' W 080°07'0 0.0
2018-May-17 06:00N 26°03' W 080°07'0 0.0
2018-May-17 05:30N 26°03' W 080°07'0 0.0
2018-May-17 05:00N 26°03' W 080°07'0 0.0
2018-May-17 04:30N 26°03' W 080°07'0 0.0
2018-May-17 04:00N 26°03' W 080°07'0 0.0
2018-May-17 03:30N 26°03' W 080°07'0 0.0
2018-May-17 03:00N 26°03' W 080°07'0 0.0
2018-May-17 02:30N 26°03' W 080°07'0 0.0
2018-May-17 02:00N 26°03' W 080°07'0 0.0
2018-May-17 01:30N 26°03' W 080°07'0 0.0
2018-May-17 01:00N 26°03' W 080°07'0 0.0
2018-May-17 00:30N 26°03' W 080°07'0 0.0
2018-May-17 00:00N 26°03' W 080°07'0 0.0
2018-May-16 23:30N 26°03' W 080°07'0 0.0
2018-May-16 23:00N 26°03' W 080°07'0 0.0
2018-May-16 22:30N 26°03' W 080°07'0 0.0
2018-May-16 22:00N 26°03' W 080°07'0 0.0
2018-May-16 21:30N 26°03' W 080°07'0 0.0
2018-May-16 21:00N 26°03' W 080°07'0 0.0
2018-May-16 20:30N 26°03' W 080°07'0 0.0
2018-May-16 20:00N 26°03' W 080°07'0 0.0
2018-May-16 19:30N 26°03' W 080°07'0 0.0
2018-May-16 19:00N 26°03' W 080°07'0 0.0
2018-May-16 18:30N 26°03' W 080°07'0 0.0
2018-May-16 18:00N 26°03' W 080°07'0 0.0
2018-May-16 17:30N 26°03' W 080°07'0 0.0
2018-May-16 17:00N 26°03' W 080°07'0 0.0
2018-May-16 16:30N 26°03' W 080°07'0 0.0
2018-May-16 16:00N 26°03' W 080°07'0 0.0
2018-May-16 15:30N 26°03' W 080°07'0 0.0
2018-May-16 15:00N 26°03' W 080°07'0 0.0
2018-May-16 14:30N 26°03' W 080°07'0 0.0
2018-May-16 14:00N 26°03' W 080°07'0 0.0
2018-May-16 13:30N 26°03' W 080°07'0 0.0
2018-May-16 13:00N 26°03' W 080°07'0 0.0
2018-May-16 12:30N 26°03' W 080°07'0 0.0
2018-May-16 12:00N 26°03' W 080°07'0 0.0
2018-May-16 11:30N 26°03' W 080°07'0 0.0
2018-May-16 11:00N 26°03' W 080°07'0 0.0
2018-May-16 10:30N 26°03' W 080°07'0 0.0
2018-May-16 10:00N 26°03' W 080°07'0 0.0
2018-May-16 09:30N 26°03' W 080°07'0 0.0
2018-May-16 09:00N 26°03' W 080°07'0 0.0
2018-May-16 08:30N 26°03' W 080°07'0 0.0
2018-May-16 08:00N 26°03' W 080°07'0 0.0
2018-May-16 07:30N 26°03' W 080°07'0 0.0
2018-May-16 07:00N 26°03' W 080°07'0 0.0
2018-May-16 06:30N 26°03' W 080°07'0 0.0
2018-May-16 06:00N 26°03' W 080°07'0 0.0
2018-May-16 05:30N 26°03' W 080°07'0 0.0
2018-May-16 05:00N 26°03' W 080°07'0 0.0
2018-May-16 04:30N 26°03' W 080°07'0 0.0
2018-May-16 04:00N 26°03' W 080°07'0 0.0
2018-May-16 03:30N 26°03' W 080°07'0 0.0
2018-May-16 03:00N 26°03' W 080°07'0 0.0
2018-May-16 02:30N 26°03' W 080°07'0 0.0
2018-May-16 02:00N 26°03' W 080°07'0 0.0
2018-May-16 01:30N 26°03' W 080°07'0 0.0
2018-May-16 01:00N 26°03' W 080°07'0 0.0
2018-May-16 00:30N 26°03' W 080°07'0 0.0
2018-May-16 00:00N 26°03' W 080°07'0 0.0
2018-May-15 23:30N 26°03' W 080°07'0 0.0
2018-May-15 23:00N 26°03' W 080°07'0 0.0
2018-May-15 22:30N 26°03' W 080°07'0 0.0
2018-May-15 22:00N 26°03' W 080°07'0 0.0
2018-May-15 21:30N 26°03' W 080°07'0 0.0
2018-May-15 21:00N 26°03' W 080°07'0 0.0
2018-May-15 20:30N 26°03' W 080°07'0 0.0
2018-May-15 20:00N 26°03' W 080°07'0 0.0
2018-May-15 19:30N 26°03' W 080°07'0 0.0
2018-May-15 19:00N 26°03' W 080°07'0 0.0
2018-May-15 18:30N 26°03' W 080°07'0 0.0
2018-May-15 18:00N 26°03' W 080°07'0 0.0
2018-May-15 17:30N 26°03' W 080°07'0 0.0
2018-May-15 16:57N 26°03' W 080°07'0 0.0
2018-May-15 16:30N 26°03' W 080°07'0 0.0
2018-May-15 16:00N 26°03' W 080°07'0 0.0
2018-May-15 15:30N 26°03' W 080°07'0 0.0
2018-May-15 15:00N 26°03' W 080°07'0 0.0
2018-May-15 14:30N 26°03' W 080°07'0 0.0
2018-May-15 14:00N 26°03' W 080°07'0 0.0
2018-May-15 13:30N 26°03' W 080°07'0 0.0
2018-May-15 13:00N 26°03' W 080°07'0 0.0
2018-May-15 12:30N 26°03' W 080°07'0 0.0
2018-May-15 12:00N 26°03' W 080°07'0 0.0
2018-May-15 11:30N 26°03' W 080°07'0 0.0
2018-May-15 11:00N 26°03' W 080°07'0 0.0
2018-May-15 10:30N 26°03' W 080°07'0 0.0
2018-May-15 10:00N 26°03' W 080°07'0 0.0
2018-May-15 09:30N 26°03' W 080°07'0 0.0
2018-May-15 09:00N 26°03' W 080°07'0 0.0
2018-May-15 08:30N 26°03' W 080°07'0 0.0
2018-May-15 08:00N 26°03' W 080°07'0 0.0
2018-May-15 07:30N 26°03' W 080°07'0 0.0
2018-May-15 07:00N 26°03' W 080°07'0 0.0
2018-May-15 06:30N 26°03' W 080°07'0 0.0
2018-May-15 06:00N 26°03' W 080°07'0 0.0
2018-May-15 05:30N 26°03' W 080°07'0 0.0
2018-May-15 05:00N 26°03' W 080°07'0 0.0
2018-May-15 04:30N 26°03' W 080°07'0 0.0
2018-May-15 04:00N 26°03' W 080°07'0 0.0
2018-May-15 03:30N 26°03' W 080°07'0 0.0
2018-May-15 03:00N 26°03' W 080°07'0 0.0
2018-May-15 02:30N 26°03' W 080°07'0 0.0
2018-May-15 02:00N 26°03' W 080°07'0 0.0
2018-May-15 01:30N 26°03' W 080°07'0 0.0
2018-May-15 01:00N 26°03' W 080°07'0 0.0
2018-May-15 00:30N 26°03' W 080°07'1 2.2
2018-May-15 00:00N 26°04' W 080°07'3 5.3
2018-May-14 23:30N 26°07' W 080°05'2 3.4
2018-May-14 23:00N 26°08' W 080°05'2 3.6
2018-May-14 22:30N 26°06' W 080°05'3 6.3
2018-May-14 22:00N 26°04' W 080°07'0 0.8
2018-May-14 21:29N 26°03' W 080°07'0 0.0
2018-May-14 20:59N 26°03' W 080°07'0 0.0
2018-May-14 20:29N 26°03' W 080°07'0 0.0
2018-May-14 19:59N 26°03' W 080°07'0 0.0
2018-May-14 19:29N 26°03' W 080°07'0 0.0
2018-May-14 18:59N 26°03' W 080°07'0 0.0
2018-May-14 18:29N 26°03' W 080°07'0 0.0
2018-May-14 17:59N 26°03' W 080°07'0 0.0
2018-May-14 17:29N 26°03' W 080°07'0 0.0
2018-May-14 16:59N 26°03' W 080°07'0 0.0
2018-May-14 16:29N 26°03' W 080°07'0 0.0
2018-May-14 15:59N 26°03' W 080°07'0 0.0
2018-May-14 15:29N 26°03' W 080°07'0 0.0
2018-May-14 14:59N 26°03' W 080°07'0 0.0
2018-May-14 14:29N 26°03' W 080°07'0 0.0
2018-May-14 13:59N 26°03' W 080°07'0 0.0
2018-May-14 13:29N 26°03' W 080°07'0 0.0
2018-May-14 12:59N 26°03' W 080°07'0 0.0
2018-May-14 12:29N 26°03' W 080°07'0 0.0
2018-May-14 11:59N 26°03' W 080°07'0 0.0
2018-May-14 11:29N 26°03' W 080°07'0 0.0
2018-May-14 10:59N 26°03' W 080°07'0 0.0
2018-May-14 10:29N 26°03' W 080°07'0 0.0
2018-May-14 09:59N 26°03' W 080°07'0 0.0
2018-May-14 09:29N 26°03' W 080°07'0 0.0
2018-May-14 08:59N 26°03' W 080°07'0 0.0
2018-May-14 08:29N 26°03' W 080°07'0 0.0
2018-May-14 07:59N 26°03' W 080°07'0 0.0
2018-May-14 07:29N 26°03' W 080°07'0 0.0
2018-May-14 06:59N 26°03' W 080°07'0 0.0
2018-May-14 06:29N 26°03' W 080°07'0 0.0
2018-May-14 05:59N 26°03' W 080°07'0 0.0
2018-May-14 05:29N 26°03' W 080°07'0 0.0
2018-May-14 04:59N 26°03' W 080°07'0 0.0
2018-May-14 04:29N 26°03' W 080°07'0 0.0
2018-May-14 03:59N 26°03' W 080°07'0 0.0
2018-May-14 03:29N 26°03' W 080°07'0 0.0
2018-May-14 02:59N 26°03' W 080°07'0 0.0
2018-May-14 02:29N 26°03' W 080°07'0 0.0
2018-May-14 01:59N 26°03' W 080°07'0 0.0
2018-May-14 01:29N 26°03' W 080°07'0 0.0
2018-May-14 00:59N 26°03' W 080°07'0 0.0
2018-May-14 00:29N 26°03' W 080°07'0 0.0
2018-May-13 23:59N 26°03' W 080°07'0 0.0
2018-May-13 23:29N 26°03' W 080°07'0 0.0
2018-May-13 22:59N 26°03' W 080°07'0 0.0
2018-May-13 22:29N 26°03' W 080°07'0 0.0
2018-May-13 21:59N 26°03' W 080°07'0 0.0
2018-May-13 21:29N 26°03' W 080°07'0 0.0
2018-May-13 20:59N 26°03' W 080°07'0 0.0
2018-May-13 20:29N 26°03' W 080°07'0 0.0
2018-May-13 19:59N 26°03' W 080°07'0 0.0
2018-May-13 19:29N 26°03' W 080°07'0 0.0
2018-May-13 18:59N 26°03' W 080°07'0 0.0
2018-May-13 18:29N 26°03' W 080°07'0 0.0
2018-May-13 17:59N 26°03' W 080°07'0 0.0
2018-May-13 17:29N 26°03' W 080°07'0 0.0
2018-May-13 16:59N 26°03' W 080°07'0 0.0
2018-May-13 16:29N 26°03' W 080°07'0 0.0
2018-May-13 15:59N 26°03' W 080°07'0 0.0
2018-May-13 15:29N 26°03' W 080°07'0 0.0
2018-May-13 14:59N 26°03' W 080°07'0 0.0
2018-May-13 14:29N 26°03' W 080°07'0 0.0
2018-May-13 13:59N 26°03' W 080°07'0 0.0
2018-May-13 13:29N 26°03' W 080°07'0 0.0
2018-May-13 12:59N 26°03' W 080°07'0 0.0
2018-May-13 12:29N 26°03' W 080°07'0 0.0
2018-May-13 11:59N 26°03' W 080°07'0 0.0
2018-May-13 11:29N 26°03' W 080°07'0 0.0
2018-May-13 10:59N 26°03' W 080°07'0 0.0
2018-May-13 10:29N 26°03' W 080°07'0 0.0
2018-May-13 09:59N 26°03' W 080°07'0 0.0
2018-May-13 09:29N 26°03' W 080°07'0 0.0
2018-May-13 08:59N 26°03' W 080°07'0 0.0
2018-May-13 08:29N 26°03' W 080°07'0 0.0
2018-May-13 07:59N 26°03' W 080°07'0 0.0
2018-May-13 07:29N 26°03' W 080°07'0 0.0
2018-May-13 06:59N 26°03' W 080°07'0 0.0
2018-May-13 06:29N 26°03' W 080°07'0 0.0
2018-May-13 05:59N 26°03' W 080°07'0 0.0
2018-May-13 05:29N 26°03' W 080°07'0 0.0
2018-May-13 04:59N 26°03' W 080°07'0 0.0
2018-May-13 04:29N 26°03' W 080°07'0 0.0
2018-May-13 03:59N 26°03' W 080°07'0 0.0
2018-May-13 03:29N 26°03' W 080°07'0 0.0
2018-May-13 02:59N 26°03' W 080°07'0 0.0
2018-May-13 02:29N 26°03' W 080°07'0 0.0
2018-May-13 01:59N 26°03' W 080°07'0 0.0
2018-May-13 01:29N 26°03' W 080°07'0 0.0
2018-May-13 00:59N 26°03' W 080°07'0 0.0
2018-May-13 00:29N 26°03' W 080°07'0 0.0
2018-May-12 23:59N 26°03' W 080°07'0 0.0
2018-May-12 23:29N 26°03' W 080°07'0 0.0
2018-May-12 22:59N 26°03' W 080°07'0 0.0
2018-May-12 22:29N 26°03' W 080°07'0 0.0
2018-May-12 21:59N 26°03' W 080°07'0 0.0
2018-May-12 21:29N 26°03' W 080°07'0 0.0
2018-May-12 20:59N 26°03' W 080°07'0 0.0
2018-May-12 20:29N 26°03' W 080°07'0 0.0
2018-May-12 19:59N 26°03' W 080°07'0 0.0
2018-May-12 19:29N 26°03' W 080°07'0 0.0
2018-May-12 18:59N 26°03' W 080°07'0 0.0
2018-May-12 18:29N 26°03' W 080°07'0 0.0
2018-May-12 17:59N 26°03' W 080°07'0 0.0
2018-May-12 17:29N 26°03' W 080°07'0 0.0
2018-May-12 16:59N 26°03' W 080°07'0 0.0
2018-May-12 16:29N 26°03' W 080°07'0 0.0
2018-May-12 15:59N 26°03' W 080°07'0 0.0
2018-May-12 15:29N 26°03' W 080°07'0 0.0
2018-May-12 14:59N 26°03' W 080°07'0 0.0
2018-May-12 14:29N 26°03' W 080°07'0 0.0
2018-May-12 13:59N 26°03' W 080°07'0 0.0
2018-May-12 13:29N 26°03' W 080°07'0 0.0
2018-May-12 12:59N 26°03' W 080°07'0 0.0
2018-May-12 12:29N 26°03' W 080°07'0 0.0
2018-May-12 11:59N 26°03' W 080°07'0 0.0
2018-May-12 11:29N 26°03' W 080°07'0 0.0
2018-May-12 10:59N 26°03' W 080°07'0 0.0
2018-May-12 10:29N 26°03' W 080°07'0 0.0
2018-May-12 09:59N 26°03' W 080°07'0 0.0
2018-May-12 09:29N 26°03' W 080°07'0 0.0
2018-May-12 08:59N 26°03' W 080°07'0 0.0
2018-May-12 08:29N 26°03' W 080°07'0 0.0
2018-May-12 07:59N 26°03' W 080°07'0 0.0
2018-May-12 07:29N 26°03' W 080°07'0 0.0
2018-May-12 06:59N 26°03' W 080°07'0 0.0
2018-May-12 06:29N 26°03' W 080°07'0 0.0
2018-May-12 05:59N 26°03' W 080°07'0 0.0
2018-May-12 05:29N 26°03' W 080°07'0 0.0
2018-May-12 04:59N 26°03' W 080°07'0 0.0
2018-May-12 04:29N 26°03' W 080°07'0 0.0
2018-May-12 03:59N 26°03' W 080°07'0 0.0
2018-May-12 03:29N 26°03' W 080°07'0 0.0
2018-May-12 02:59N 26°03' W 080°07'0 0.0
2018-May-12 02:29N 26°03' W 080°07'0 0.0
2018-May-12 01:59N 26°03' W 080°07'0 0.0
2018-May-12 01:29N 26°03' W 080°07'  

Dump ship's entire track history